Alma, New York
Current Conditions -  °F | °C
As of 4:56 AM on Thursday 23 Oct 2014 (Local Time) from KELZ Reporting Station
Overcast Overcast  
Wind Chill: 33°   Ceiling: 800
Heat Index: 41°   Visibility: 10mi
Dew Point: 38°   Wind: 16mph
Humidity: 89%   Direction: 340°NNW
Pressure: 30.05"   Gusts: 22mph
Location:  42.01°N, 78.06°W
Report Text: KELZ 230856Z AUTO 34014G19KT 10SM OVC008 05/03 A3005 RMK AO2 CIG 006V011 SLP190 T00500033 58005
Loading
Personal Weather Stations






























Interactive Weather Map
Tropical Storm Tracking
New forecast layout! Learn more

10-Day Weather Forecast

Advertisements
Track Severe Weather on mobile